Latest Coastal Weather Observations for King Island Airport

IDV60701

Issued at 1:21 am EST Monday 30 May 2016 (issued every 10 minutes, with the page automatically refreshed every 10 minutes)

About coastal observations | Map of coastal stations | Coastal observations for VIC | Marine services | Other Formats
Station Details ID: 098017 Name: KING ISLAND AIRPORT Lat: -39.88 Lon: 143.88 Height: 37.0 m
Data from the previous 72 hours. | See also: Recent months at King Island Airport
Date/Time
EST
Temp

°C
Wind Pressure Rain
since 9am
mm
Weather Cloud Vis
km
Sea
Height
m
Swell
Dir
 
Speed
knots
Gust
knots
hPa Trend Height
m
Period
s
Dir
30/01:00am 8.1 E 3 5 1023.9 - 0.0 - Cloudy 10 - - - -
30/12:30am 8.3 CALM 0 0 1023.9 - 0.0 - Cloudy 10 - - - -
30/12:00am 8.5 N 2 4 1023.9 - 0.0 - Cloudy 10 - - - -
 
Date/Time
EST
Temp

°C
Wind Pressure Rain
since 9am
mm
Weather Cloud Vis
km
Sea
Height
m
Swell
Dir
 
Speed
knots
Gust
knots
hPa Trend Height
m
Period
s
Dir
29/11:30pm 8.6 CALM 0 0 1023.7 - 0.0 - Cloudy 10 - - - -
29/11:00pm 8.4 CALM 0 0 1023.6 - 0.0 - Cloudy 10 - - - -
29/10:30pm 8.7 CALM 0 3 1023.6 - 0.0 - Cloudy 10 - - - -
29/10:00pm 8.8 CALM 0 0 1023.5 - 0.0 - Cloudy 10 - - - -
29/09:30pm 8.9 ENE 3 4 1023.4 - 0.0 - Cloudy 10 - - - -
29/09:00pm 8.9 CALM 0 0 1023.1 - 0.0 - Cloudy 10 - - - -
29/08:30pm 9.0 SE 3 5 1022.8 - 0.0 - Cloudy 10 - - - -
29/08:00pm 9.4 S 4 5 1022.8 - 0.0 - Cloudy 10 - - - -
29/07:30pm 10.1 S 4 6 1022.4 - 0.0 - Cloudy 10 - - - -
29/07:00pm 10.4 SSW 8 11 1022.1 - 0.0 - Cloudy 10 - - - -
29/06:30pm 10.6 SSW 6 8 1021.8 - 0.0 - Cloudy 10 - - - -
29/06:00pm 10.6 SSW 6 8 1021.6 - 0.0 - Cloudy 10 - - - -
29/05:30pm 10.7 SW 6 9 1021.1 - 0.0 - Cloudy 10 - - - -
29/05:00pm 10.7 SW 7 8 1021.1 - 0.0 - Cloudy 10 - - - -
29/04:30pm 10.8 WSW 8 10 1020.9 - 0.0 - Cloudy 10 - - - -
29/04:00pm 10.7 SW 9 15 1020.8 - 0.0 - Partly cloudy 10 - - - -
29/03:30pm 11.4 SSW 11 16 1020.4 - 0.0 - Cloudy 10 - - - -
29/03:00pm 11.7 SW 11 15 1020.3 - 0.0 - Cloudy 10 - - - -
29/02:30pm 11.7 SSW 11 15 1020.2 - 0.0 - Cloudy 10 - - - -
29/02:00pm 11.6 SSW 11 16 1020.1 - 0.0 - Cloudy 10 - - - -
29/01:30pm 11.9 SW 11 18 1020.0 - 0.0 - Cloudy 10 - - - -
29/01:00pm 11.6 SW 11 15 1020.1 - 0.0 - Cloudy 10 - - - -
29/12:30pm 11.9 SSW 13 16 1019.9 - 0.0 - Cloudy 10 - - - -
29/12:00pm 12.0 SW 12 16 1020.0 - 0.0 - - - - - - -
29/11:30am 11.9 SSW 12 16 1020.1 - 0.0 - Cloudy - - - - -
29/11:00am 11.8 SSW 12 15 1020.2 - 0.0 - Cloudy - - - - -
29/10:30am 11.6 SSW 12 16 1020.1 - 0.0 - Cloudy - - - - -
29/10:00am 11.5 SW 11 15 1019.9 - 0.0 - Partly cloudy 10 - - - -
29/09:30am 11.3 SSW 14 21 1019.7 - 0.0 - Cloudy 10 - - - -
29/09:00am 11.1 SSW 12 16 1019.3 - 0.4 - Mostly cloudy 10 - - - -
29/08:30am 10.9 SSW 11 15 1018.9 - 0.4 - Cloudy 10 - - - -
29/08:00am 10.7 SW 9 14 1018.6 - 0.4 - Cloudy 10 - - - -
29/07:30am 10.8 SW 12 16 1018.2 - 0.4 - Cloudy 10 - - - -
29/07:00am 10.5 SW 13 19 1018.1 - 0.4 - Cloudy 10 - - - -
29/06:30am 10.6 SSW 13 17 1017.8 - 0.4 - Cloudy 10 - - - -
29/06:00am 11.0 SW 9 14 1017.5 - 0.4 - Cloudy 10 - - - -
29/05:30am 11.1 SW 13 18 1017.3 - 0.4 - Cloudy 10 - - - -
29/05:00am 11.3 SW 13 17 1016.9 - 0.4 - Cloudy 10 - - - -
29/04:30am 11.0 SSW 9 12 1016.6 - 0.4 - Partly cloudy 10 - - - -
29/04:00am 10.6 SSW 12 16 1016.6 - 0.4 - Partly cloudy 10 - - - -
29/03:30am 11.3 SW 13 19 1016.4 - 0.4 - Partly cloudy 10 - - - -
29/03:00am 10.5 SW 11 14 1016.3 - 0.4 - Mostly clear 10 - - - -
29/02:30am 11.0 SW 11 15 1016.2 - 0.4 - Partly cloudy 10 - - - -
29/02:00am 10.8 SW 12 15 1016.1 - 0.4 - Partly cloudy 10 - - - -
29/01:30am 10.7 SW 9 14 1015.9 - 0.4 - Partly cloudy 10 - - - -
29/01:00am 11.1 SSW 13 18 1015.7 - 0.4 - Partly cloudy 10 - - - -
29/12:30am 11.4 SW 13 18 1015.6 - 0.4 - Partly cloudy 10 - - - -
29/12:00am 11.2 SSW 17 23 1015.6 - 0.4 - Cloudy 10 - - - -
 
Date/Time
EST
Temp

°C
Wind Pressure Rain
since 9am
mm
Weather Cloud Vis
km
Sea
Height
m
Swell
Dir
 
Speed
knots
Gust
knots
hPa Trend Height
m
Period
s
Dir
28/11:30pm 11.3 SW 12 18 1015.5 - 0.4 - Partly cloudy 10 - - - -
28/11:00pm 11.2 SW 15 21 1015.5 - 0.4 - Partly cloudy 10 - - - -
28/10:30pm 10.7 SSW 11 18 1015.4 - 0.4 - Partly cloudy 10 - - - -
28/10:00pm 10.7 SW 14 19 1015.5 - 0.4 - Partly cloudy 10 - - - -
28/09:30pm 10.8 SW 14 18 1015.5 - 0.4 - Partly cloudy 10 - - - -
28/09:00pm 10.7 SW 15 20 1015.4 - 0.4 - Mostly clear 10 - - - -
28/08:30pm 11.0 SW 14 20 1015.3 - 0.4 - Partly cloudy 10 - - - -
28/08:00pm 10.7 SW 15 20 1015.1 - 0.4 - Partly cloudy 10 - - - -
28/07:30pm 10.9 SW 14 21 1014.7 - 0.4 - Partly cloudy 10 - - - -
28/07:00pm 10.6 SW 16 22 1014.4 - 0.4 - Partly cloudy 10 - - - -
28/06:30pm 10.8 SW 17 24 1014.3 - 0.4 - Partly cloudy 10 - - - -
28/06:13pm 10.2 SW 15 25 1014.1 - 0.4 - Partly cloudy 10 - - - -
28/06:00pm 10.5 SW 16 22 1014.0 - 0.2 - Cloudy 10 - - - -
28/05:33pm 10.4 SW 16 26 1013.7 - 0.2 - Partly cloudy 10 - - - -
28/05:30pm 10.3 SW 17 26 1013.7 - 0.2 - Partly cloudy 10 - - - -
28/05:01pm 10.8 SW 15 26 1013.5 - 0.2 - Partly cloudy 10 - - - -
28/05:00pm 10.7 SW 15 22 1013.4 - 0.2 - Partly cloudy 10 - - - -
28/04:30pm 10.7 SSW 16 22 1013.2 - 0.2 - Partly cloudy 10 - - - -
28/04:03pm 11.9 SW 16 27 1012.9 - 0.0 - Partly cloudy 10 - - - -
28/04:00pm 11.8 SW 16 22 1012.8 - 0.0 - Partly cloudy 10 - - - -
28/03:30pm 12.0 SW 16 22 1012.5 - 0.0 - Partly cloudy 10 - - - -
28/03:00pm 12.3 SW 15 20 1012.4 - 0.0 - Cloudy 10 - - - -
28/02:30pm 12.4 SW 17 26 1012.2 - 0.0 - Partly cloudy 10 - - - -
28/02:00pm 12.2 SW 18 22 1012.0 - 0.0 - Partly cloudy 10 - - - -
28/01:30pm 12.3 SW 19 27 1011.9 - 0.0 - Partly cloudy 10 - - - -
28/01:00pm 11.8 SSW 19 25 1011.9 - 0.0 - Partly cloudy 10 - - - -
28/12:30pm 12.4 SSW 21 27 1011.9 - 0.0 - Partly cloudy 10 - - - -
28/12:00pm 11.2 SSW 15 23 1012.0 - 0.0 - Cloudy 10 - - - -
28/11:49am 11.3 SSW 17 27 1012.1 - 0.0 - Partly cloudy 10 - - - -
28/11:30am 11.7 SSW 19 23 1012.3 - 0.0 - Partly cloudy 10 - - - -
28/11:00am 11.9 SSW 17 24 1012.4 - 0.0 - Partly cloudy 10 - - - -
28/10:30am 12.5 SSW 17 25 1012.3 - 0.0 - Partly cloudy 10 - - - -
28/10:00am 11.6 SSW 12 17 1012.0 - 0.0 - Partly cloudy 10 - - - -
28/09:30am 11.8 SSW 15 21 1011.8 - 0.0 - Partly cloudy 10 - - - -
28/09:00am 11.2 S 12 21 1011.7 - 3.2 - Mostly cloudy 10 - - - -
28/08:30am 10.9 SSW 12 15 1011.6 - 3.2 - Partly cloudy 10 - - - -
28/08:00am 10.6 SSW 11 17 1011.4 - 3.2 - Partly cloudy 10 - - - -
28/07:30am 10.4 SSW 15 19 1011.1 - 3.2 - Partly cloudy 10 - - - -
28/07:00am 10.2 S 9 17 1010.8 - 3.2 - Partly cloudy 10 - - - -
28/06:30am 8.6 S 8 12 1010.5 - 3.2 - Partly cloudy 10 - - - -
28/06:00am 8.9 S 8 10 1010.2 - 3.2 Recent precip. Mostly clear 10 - - - -
28/05:30am 8.9 S 6 8 1010.0 - 3.2 - Partly cloudy 10 - - - -
28/05:00am 9.2 SSE 7 13 1009.8 - 3.0 - Partly cloudy 10 - - - -
28/04:30am 9.0 S 9 14 1009.7 - 2.6 - Partly cloudy 10 - - - -
28/04:00am 7.8 SSW 6 8 1009.4 - 2.6 - Partly cloudy 10 - - - -
28/03:30am 7.9 S 5 7 1009.3 - 2.6 - - 10 - - - -
28/03:00am 8.0 S 7 10 1009.4 - 2.6 - - 10 - - - -
28/02:30am 7.7 SSE 6 9 1009.4 - 2.6 - Partly cloudy 10 - - - -
28/02:00am 7.5 S 5 7 1009.3 - 2.6 - - 10 - - - -
28/01:30am 7.6 S 6 8 1009.3 - 2.6 - - 10 - - - -
28/01:00am 8.1 S 7 9 1009.2 - 2.6 - - 10 - - - -
28/12:30am 8.3 S 6 8 1009.3 - 2.6 - Partly cloudy 10 - - - -
28/12:00am 8.8 SSW 3 7 1009.4 - 2.6 Recent precip. Cloudy 10 - - - -
 
Date/Time
EST
Temp

°C
Wind Pressure Rain
since 9am
mm
Weather Cloud Vis
km
Sea
Height
m
Swell
Dir
 
Speed
knots
Gust
knots
hPa Trend Height
m
Period
s
Dir
27/11:30pm 9.1 ESE 3 5 1009.2 - 2.6 - Partly cloudy 10 - - - -
27/11:00pm 9.4 ESE 5 6 1009.1 - 2.4 - Cloudy 10 - - - -
27/10:30pm 9.2 SE 6 8 1009.3 - 2.4 - Partly cloudy 10 - - - -
27/10:19pm 9.4 S 9 15 1009.3 - 2.2 - Partly cloudy 7 - - - -
27/10:04pm 9.6 S 9 14 1009.3 - 1.6 - Partly cloudy 5 - - - -
27/10:00pm 9.7 S 7 12 1009.3 - 1.4 - Partly cloudy 7 - - - -
27/09:30pm 9.1 S 5 6 1009.0 - 1.0 - Partly cloudy 10 - - - -
27/09:00pm 9.4 S 8 12 1009.0 - 0.6 Showers Cloudy 7 - - - -
27/08:30pm 8.9 SSE 6 9 1008.5 - 0.4 - Cloudy 10 - - - -
27/08:00pm 8.5 SSE 7 9 1008.2 - 0.4 - - 10 - - - -
27/07:30pm 6.7 SE 3 4 1007.9 - 0.4 - Partly cloudy 10 - - - -
27/07:00pm 7.4 SSE 6 7 1007.7 - 0.2 - - 10 - - - -
27/06:30pm 7.7 SE 1 4 1007.6 - 0.2 - - 10 - - - -
27/06:00pm 8.8 SSW 2 4 1007.3 - 0.2 Drizzle - 10 - - - -
27/05:30pm 9.6 CALM 0 1 1007.2 - 0.2 - Partly cloudy 10 - - - -
27/05:00pm 9.9 S 10 14 1007.4 - 0.0 - Partly cloudy 9 - - - -
27/04:30pm 10.8 S 6 7 1007.1 - 0.0 - Partly cloudy 10 - - - -
27/04:00pm 11.2 SSW 5 6 1006.8 - 0.0 - - 10 - - - -
27/03:30pm 11.8 SSW 7 9 1006.6 - 0.0 - Partly cloudy 10 - - - -
27/03:00pm 12.5 SW 9 12 1006.3 - 0.0 - - 10 - - - -
27/02:30pm 13.3 SW 8 11 1006.2 - 0.0 - - 10 - - - -
27/02:00pm 12.9 SSW 9 14 1006.4 - 0.0 - Partly cloudy 10 - - - -
27/01:30pm 11.8 S 8 13 1006.5 - 0.0 - Partly cloudy 10 - - - -
27/01:00pm 12.4 SW 10 15 1006.5 - 0.0 - Partly cloudy 10 - - - -
27/12:30pm 13.3 SW 8 10 1006.5 - 0.0 - Partly cloudy 10 - - - -
27/12:00pm 12.9 SW 8 10 1006.7 - 0.0 - Partly cloudy 10 - - - -
27/11:30am 13.3 SSW 9 13 1006.8 - 0.0 - Partly cloudy 10 - - - -
27/11:00am 12.1 SW 9 12 1007.0 - 0.0 - Partly cloudy 10 - - - -
27/10:30am 12.7 SW 8 11 1007.1 - 0.0 - Partly cloudy 10 - - - -
27/10:00am 11.6 SSW 9 15 1007.1 - 0.0 - Partly cloudy 10 - - - -
27/09:30am 11.7 SW 8 11 1007.0 - 0.0 - Partly cloudy 10 - - - -
27/09:00am 11.6 SW 7 9 1006.8 - 1.0 - Mostly clear 10 - - - -
27/08:30am 10.6 WSW 8 10 1006.8 - 1.0 - Partly cloudy 10 - - - -
27/08:00am 10.0 SW 8 14 1006.7 - 1.0 - Partly cloudy 10 - - - -
27/07:30am 9.4 S 5 7 1006.5 - 1.0 - Partly cloudy 10 - - - -
27/07:00am 9.8 SW 9 11 1006.3 - 1.0 - Partly cloudy 10 - - - -
27/06:30am 9.7 SW 7 8 1006.1 - 1.0 - Partly cloudy 10 - - - -
27/06:00am 9.9 SW 10 14 1006.1 - 1.0 - Mostly clear 10 - - - -
27/05:30am 10.1 SW 10 14 1006.0 - 1.0 - Partly cloudy 10 - - - -
27/05:00am 9.9 SW 9 13 1006.0 - 1.0 - Partly cloudy 10 - - - -
27/04:30am 10.0 SW 9 12 1005.8 - 1.0 - - 10 - - - -
27/04:00am 9.5 SW 9 12 1005.8 - 1.0 - Partly cloudy 10 - - - -
27/03:30am 10.6 SSW 11 16 1005.8 - 1.0 - Partly cloudy 10 - - - -
27/03:00am 9.9 SW 11 17 1006.0 - 1.0 Rain Cloudy 10 - - - -
27/02:30am 10.1 WSW 9 14 1006.2 - 0.8 - Partly cloudy 10 - - - -
27/02:00am 10.0 SSW 11 15 1006.1 - 0.6 - Partly cloudy 10 - - - -
27/01:30am 9.5 SW 8 13 1005.9 - 0.6 - Partly cloudy 10 - - - -

Other Formats:

Comma delimited format used in spreadsheet applications
http://www.bom.gov.au/fwo/IDV60701/IDV60701.94850.axf

JavaScript Object Notation format (JSON) in row-major order
http://www.bom.gov.au/fwo/IDV60701/IDV60701.94850.json